createdAt,value
2019-05-02T00:01:36.956Z,7.60
2019-05-02T00:04:06.366Z,7.60
2019-05-02T00:06:38.112Z,7.50
2019-05-02T00:09:11.134Z,7.50
2019-05-02T00:11:40.739Z,7.50
2019-05-02T00:14:10.623Z,7.50
2019-05-02T00:16:40.309Z,7.40
2019-05-02T00:19:13.999Z,7.50
2019-05-02T00:21:42.994Z,7.40
2019-05-02T00:24:13.238Z,7.40
2019-05-02T00:26:42.587Z,7.40
2019-05-02T00:29:11.928Z,7.30
2019-05-02T00:31:41.853Z,7.30
2019-05-02T00:34:12.624Z,7.20
2019-05-02T00:36:41.966Z,7.20
2019-05-02T00:39:13.878Z,7.10
2019-05-02T00:41:42.379Z,7.10
2019-05-02T00:44:12.342Z,7.10
2019-05-02T00:46:41.667Z,7.00
2019-05-02T00:49:11.068Z,7.00
2019-05-02T00:51:40.417Z,7.00
2019-05-02T00:54:09.756Z,6.90
2019-05-02T00:56:40.163Z,6.90
2019-05-02T00:59:10.207Z,6.90
2019-05-02T01:01:41.427Z,6.80
2019-05-02T01:04:18.246Z,6.70
2019-05-02T01:06:49.244Z,6.70
2019-05-02T01:09:18.651Z,6.70
2019-05-02T01:11:48.002Z,6.60
2019-05-02T01:14:17.349Z,6.60
2019-05-02T01:16:49.458Z,6.50
2019-05-02T01:19:17.769Z,6.50
2019-05-02T01:21:47.105Z,6.40
2019-05-02T01:24:16.459Z,6.40
2019-05-02T01:26:50.405Z,6.40
2019-05-02T01:29:31.773Z,6.40
2019-05-02T01:32:02.724Z,6.40
2019-05-02T01:34:39.688Z,6.40
2019-05-02T01:37:20.670Z,6.30
2019-05-02T01:39:44.727Z,6.30
2019-05-02T01:42:14.062Z,6.30
2019-05-02T01:44:43.418Z,6.30
2019-05-02T01:47:12.847Z,6.20
2019-05-02T01:49:42.206Z,6.20
2019-05-02T01:52:11.553Z,6.20
2019-05-02T01:54:45.673Z,6.10
2019-05-02T01:57:11.979Z,6.10
2019-05-02T01:59:41.303Z,6.10
2019-05-02T02:02:10.655Z,6.00
2019-05-02T02:04:40.006Z,6.00
2019-05-02T02:07:09.350Z,6.00
2019-05-02T02:09:43.616Z,6.00
2019-05-02T02:12:11.351Z,5.90
2019-05-02T02:14:40.787Z,5.90
2019-05-02T02:17:15.319Z,5.90
2019-05-02T02:19:42.853Z,5.90
2019-05-02T02:22:13.840Z,5.90
2019-05-02T02:24:44.826Z,5.80
2019-05-02T02:27:19.887Z,5.80
2019-05-02T02:29:48.346Z,5.80
2019-05-02T02:32:19.944Z,5.90
2019-05-02T02:34:48.753Z,5.80
2019-05-02T02:37:18.091Z,5.80
2019-05-02T02:39:48.537Z,5.80
2019-05-02T02:42:18.505Z,5.80
2019-05-02T02:45:12.802Z,5.80
2019-05-02T02:47:38.835Z,5.80
2019-05-02T02:50:09.469Z,5.80
2019-05-02T02:52:44.477Z,5.80
2019-05-02T02:55:10.056Z,5.80
2019-05-02T02:57:40.587Z,5.90
2019-05-02T03:00:11.068Z,5.90
2019-05-02T03:02:47.614Z,5.90
2019-05-02T03:05:18.940Z,6.00
2019-05-02T03:07:43.308Z,6.00
2019-05-02T03:10:12.817Z,6.10
2019-05-02T03:12:46.770Z,6.10
2019-05-02T03:15:21.054Z,6.00
2019-05-02T03:17:48.824Z,6.00
2019-05-02T03:20:18.164Z,6.00
2019-05-02T03:22:47.506Z,6.00
2019-05-02T03:25:18.054Z,6.00
2019-05-02T03:27:48.734Z,6.00
2019-05-02T03:30:33.187Z,6.00
2019-05-02T03:33:03.714Z,6.00
2019-05-02T03:35:40.842Z,6.00
2019-05-02T03:37:53.215Z,5.90
2019-05-02T03:40:22.878Z,5.90
2019-05-02T03:42:52.697Z,5.90
2019-05-02T03:45:22.510Z,5.90
2019-05-02T03:47:51.939Z,5.80
2019-05-02T03:50:30.700Z,5.80
2019-05-02T03:52:52.411Z,5.80
2019-05-02T03:55:23.898Z,5.70
2019-05-02T03:57:53.463Z,5.70
2019-05-02T04:00:24.376Z,5.70
2019-05-02T04:03:00.831Z,5.70
2019-05-02T04:05:25.098Z,5.70
2019-05-02T04:07:54.910Z,5.70
2019-05-02T04:10:52.446Z,5.70
2019-05-02T04:13:17.627Z,5.70
2019-05-02T04:15:47.378Z,5.70
2019-05-02T04:18:17.960Z,5.70
2019-05-02T04:20:49.642Z,5.70
2019-05-02T04:23:21.396Z,5.70
2019-05-02T04:25:52.351Z,5.70
2019-05-02T04:28:24.211Z,5.70
2019-05-02T04:30:54.067Z,5.70
2019-05-02T04:33:28.962Z,5.70
2019-05-02T04:35:58.942Z,5.70
2019-05-02T04:38:41.746Z,5.70
2019-05-02T04:40:59.210Z,5.80
2019-05-02T04:43:28.736Z,5.80
2019-05-02T04:46:00.189Z,5.80
2019-05-02T04:48:34.707Z,5.90
2019-05-02T04:51:10.398Z,6.00
2019-05-02T04:53:36.831Z,6.10
2019-05-02T04:56:06.853Z,6.10
2019-05-02T04:58:37.195Z,6.20
2019-05-02T05:01:04.598Z,6.30
2019-05-02T05:03:33.941Z,6.40
2019-05-02T05:06:09.232Z,6.40
2019-05-02T05:08:34.356Z,6.50
2019-05-02T05:11:03.735Z,6.60
2019-05-02T05:13:33.067Z,6.70
2019-05-02T05:16:02.971Z,6.90
2019-05-02T05:18:33.494Z,7.00
2019-05-02T05:21:02.876Z,7.10
2019-05-02T05:23:33.860Z,7.30
2019-05-02T05:26:04.760Z,7.40
2019-05-02T05:28:35.021Z,7.50
2019-05-02T05:31:07.518Z,7.60
2019-05-02T05:33:37.740Z,7.80
2019-05-02T05:36:08.186Z,7.90
2019-05-02T05:38:40.306Z,8.00
2019-05-02T05:41:13.215Z,8.10
2019-05-02T05:43:40.195Z,8.30
2019-05-02T05:46:12.973Z,8.40
2019-05-02T05:48:40.903Z,8.40
2019-05-02T05:51:11.829Z,8.60
2019-05-02T05:53:41.482Z,8.70
2019-05-02T05:56:10.831Z,8.70
2019-05-02T05:58:50.391Z,8.80
2019-05-02T06:01:11.611Z,8.90
2019-05-02T06:03:44.574Z,9.00
2019-05-02T06:06:14.827Z,9.00
2019-05-02T06:08:43.101Z,9.10
2019-05-02T06:11:14.909Z,9.10
2019-05-02T06:13:48.823Z,9.20
2019-05-02T06:16:15.183Z,9.20
2019-05-02T06:18:45.718Z,9.20
2019-05-02T06:21:17.061Z,9.30
2019-05-02T06:23:46.142Z,9.40
2019-05-02T06:26:15.855Z,9.40
2019-05-02T06:28:45.412Z,9.50
2019-05-02T06:31:17.078Z,9.60
2019-05-02T06:33:45.839Z,9.70
2019-05-02T06:36:15.194Z,9.70
2019-05-02T06:38:44.539Z,9.80
2019-05-02T06:41:16.102Z,9.90
2019-05-02T06:43:46.531Z,10.00
2019-05-02T06:46:21.856Z,10.10
2019-05-02T06:48:48.303Z,10.20
2019-05-02T06:51:20.764Z,10.40
2019-05-02T06:53:49.995Z,10.50
2019-05-02T06:56:19.340Z,10.60
2019-05-02T06:58:49.546Z,10.70
2019-05-02T07:01:21.289Z,10.80
2019-05-02T07:03:50.141Z,10.90
2019-05-02T07:06:19.825Z,11.00
2019-05-02T07:08:49.244Z,11.20
2019-05-02T07:11:18.555Z,11.30
2019-05-02T07:13:47.909Z,11.40
2019-05-02T07:16:37.594Z,11.50
2019-05-02T07:19:21.598Z,11.50
2019-05-02T07:21:53.055Z,11.70
2019-05-02T07:24:19.840Z,11.80
2019-05-02T07:26:52.205Z,11.90
2019-05-02T07:29:21.857Z,12.00
2019-05-02T07:31:53.521Z,12.00
2019-05-02T07:34:22.401Z,12.10
2019-05-02T07:36:51.743Z,12.30
2019-05-02T07:39:21.095Z,12.40
2019-05-02T07:41:50.439Z,12.50
2019-05-02T07:44:19.800Z,12.60
2019-05-02T07:46:51.860Z,12.70
2019-05-02T07:49:20.915Z,12.90
2019-05-02T07:51:52.293Z,13.00
2019-05-02T07:54:24.720Z,13.00
2019-05-02T07:56:53.366Z,13.10
2019-05-02T07:59:23.633Z,13.20
2019-05-02T08:01:54.329Z,13.30
2019-05-02T08:04:23.749Z,13.40
2019-05-02T08:06:53.116Z,13.50
2019-05-02T08:09:22.631Z,13.70
2019-05-02T08:11:52.997Z,13.70
2019-05-02T08:14:22.353Z,13.70
2019-05-02T08:17:04.705Z,13.70
2019-05-02T08:19:23.651Z,13.80
2019-05-02T08:21:53.108Z,13.90
2019-05-02T08:24:22.459Z,14.00
2019-05-02T08:26:59.653Z,14.10
2019-05-02T08:29:30.794Z,14.30
2019-05-02T08:32:00.164Z,14.50
2019-05-02T08:34:31.383Z,14.60
2019-05-02T08:37:03.203Z,14.60
2019-05-02T08:39:33.915Z,14.70
2019-05-02T08:42:03.934Z,14.80
2019-05-02T08:44:33.283Z,14.90
2019-05-02T08:47:02.633Z,15.10
2019-05-02T08:49:31.989Z,15.10
2019-05-02T08:52:01.351Z,15.40
2019-05-02T08:54:32.823Z,15.60
2019-05-02T08:57:01.743Z,15.90
2019-05-02T08:59:31.097Z,15.90
2019-05-02T09:02:00.440Z,16.10
2019-05-02T09:04:30.743Z,16.10
2019-05-02T09:07:00.830Z,16.10
2019-05-02T09:09:30.306Z,16.00
2019-05-02T09:12:09.709Z,15.70
2019-05-02T09:14:32.234Z,15.50
2019-05-02T09:17:08.080Z,15.40
2019-05-02T09:19:34.882Z,15.20
2019-05-02T09:22:07.510Z,15.10
2019-05-02T09:24:34.935Z,15.20
2019-05-02T09:27:04.277Z,15.20
2019-05-02T09:29:37.321Z,15.20
2019-05-02T09:32:04.776Z,15.20
2019-05-02T09:34:34.133Z,15.00
2019-05-02T09:37:03.480Z,15.00
2019-05-02T09:39:36.464Z,14.90
2019-05-02T09:42:06.688Z,14.90
2019-05-02T09:44:35.160Z,14.80
2019-05-02T09:47:04.682Z,14.90
2019-05-02T09:49:34.030Z,14.90
2019-05-02T09:52:03.526Z,14.80
2019-05-02T09:54:37.010Z,14.70
2019-05-02T09:57:04.070Z,14.60
2019-05-02T09:59:33.541Z,14.60
2019-05-02T10:02:04.083Z,14.50
2019-05-02T10:04:33.491Z,14.40
2019-05-02T10:07:02.853Z,14.40
2019-05-02T10:09:32.522Z,14.40
2019-05-02T10:12:02.179Z,14.30
2019-05-02T10:14:33.059Z,14.30
2019-05-02T10:17:06.903Z,14.20
2019-05-02T10:19:33.865Z,14.20
2019-05-02T10:22:03.357Z,14.10
2019-05-02T10:24:32.703Z,14.10
2019-05-02T10:27:08.232Z,14.00
2019-05-02T10:29:33.286Z,14.00
2019-05-02T10:32:02.637Z,14.00
2019-05-02T10:34:32.986Z,14.00
2019-05-02T10:37:03.076Z,14.00
2019-05-02T10:39:34.103Z,13.90
2019-05-02T10:42:03.678Z,13.90
2019-05-02T10:44:36.468Z,13.80
2019-05-02T10:47:04.090Z,13.80
2019-05-02T10:49:42.625Z,13.80
2019-05-02T10:52:12.303Z,13.70
2019-05-02T10:54:42.163Z,13.70
2019-05-02T10:57:12.654Z,13.70
2019-05-02T10:59:42.250Z,13.60
2019-05-02T11:02:18.984Z,13.50
2019-05-02T11:04:49.969Z,13.40
2019-05-02T11:07:22.612Z,13.20
2019-05-02T11:09:52.420Z,13.10
2019-05-02T11:12:40.721Z,12.90
2019-05-02T11:15:04.291Z,12.90
2019-05-02T11:17:36.448Z,12.90
2019-05-02T11:20:09.623Z,12.80
2019-05-02T11:22:38.948Z,12.90
2019-05-02T11:25:08.704Z,12.80
2019-05-02T11:27:38.050Z,12.60
2019-05-02T11:30:12.165Z,12.50
2019-05-02T11:32:41.896Z,12.40
2019-05-02T11:35:12.209Z,12.40
2019-05-02T11:37:42.207Z,12.20
2019-05-02T11:40:12.891Z,12.10
2019-05-02T11:42:42.288Z,12.10
2019-05-02T11:45:12.233Z,12.10
2019-05-02T11:47:42.326Z,12.00
2019-05-02T11:50:12.627Z,12.00
2019-05-02T11:52:42.453Z,12.10
2019-05-02T11:55:12.950Z,12.10
2019-05-02T11:57:42.702Z,12.10
2019-05-02T12:00:13.411Z,12.10
2019-05-02T12:02:44.402Z,12.10
2019-05-02T12:05:18.111Z,12.10
2019-05-02T12:07:47.459Z,12.00
2019-05-02T12:10:16.870Z,11.90
2019-05-02T12:12:46.217Z,11.80
2019-05-02T12:15:15.869Z,11.80
2019-05-02T12:17:45.215Z,11.80
2019-05-02T12:20:14.683Z,11.70
2019-05-02T12:22:44.039Z,11.70
2019-05-02T12:25:13.556Z,11.80
2019-05-02T12:27:42.945Z,11.80
2019-05-02T12:30:12.642Z,11.80
2019-05-02T12:32:42.771Z,11.90
2019-05-02T12:35:12.286Z,12.00
2019-05-02T12:37:42.487Z,12.10
2019-05-02T12:40:12.395Z,12.10
2019-05-02T12:42:41.955Z,12.20
2019-05-02T12:45:12.418Z,12.20
2019-05-02T12:47:42.825Z,12.30
2019-05-02T12:50:13.037Z,12.30
2019-05-02T12:52:43.013Z,12.20
2019-05-02T12:55:12.929Z,12.30
2019-05-02T12:57:43.010Z,12.40
2019-05-02T13:00:13.486Z,12.20
2019-05-02T13:02:48.576Z,12.30
2019-05-02T13:05:17.923Z,12.40
2019-05-02T13:07:50.711Z,12.50
2019-05-02T13:10:29.327Z,12.50
2019-05-02T13:13:00.212Z,12.60
2019-05-02T13:15:29.953Z,12.70
2019-05-02T13:17:59.366Z,12.80
2019-05-02T13:20:33.614Z,12.70
2019-05-02T13:23:19.145Z,12.60
2019-05-02T13:25:48.484Z,12.70
2019-05-02T13:28:23.669Z,12.70
2019-05-02T13:31:03.815Z,12.90
2019-05-02T13:33:40.689Z,13.00
2019-05-02T13:36:32.553Z,13.10
2019-05-02T13:39:01.977Z,13.00
2019-05-02T13:41:32.151Z,13.00
2019-05-02T13:44:02.571Z,12.90
2019-05-02T13:46:32.287Z,12.80
2019-05-02T13:49:02.223Z,12.90
2019-05-02T13:51:32.189Z,12.90
2019-05-02T13:54:02.440Z,12.80
2019-05-02T13:56:48.816Z,12.90
2019-05-02T13:59:19.132Z,13.00
2019-05-02T14:01:52.116Z,12.90
2019-05-02T14:04:23.250Z,12.90
2019-05-02T14:06:53.179Z,13.00
2019-05-02T14:09:33.020Z,13.20
2019-05-02T14:12:04.007Z,13.10
2019-05-02T14:14:33.362Z,13.00
2019-05-02T14:17:03.133Z,13.10
2019-05-02T14:19:33.260Z,13.00
2019-05-02T14:22:03.038Z,13.10
2019-05-02T14:24:32.498Z,13.30
2019-05-02T14:27:02.605Z,13.40
2019-05-02T14:29:33.016Z,13.40
2019-05-02T14:32:02.840Z,13.40
2019-05-02T14:34:42.838Z,13.50
2019-05-02T14:37:12.208Z,13.50
2019-05-02T14:39:42.783Z,13.70
2019-05-02T14:42:15.321Z,13.70
2019-05-02T14:45:04.310Z,13.80
2019-05-02T14:47:18.133Z,13.60
2019-05-02T14:49:45.351Z,13.70
2019-05-02T14:52:14.702Z,13.60
2019-05-02T14:54:47.940Z,13.70
2019-05-02T14:57:22.066Z,13.80
2019-05-02T14:59:50.187Z,13.80
2019-05-02T15:02:22.872Z,13.60
2019-05-02T15:04:52.315Z,13.70
2019-05-02T15:07:26.557Z,13.70
2019-05-02T15:09:57.222Z,13.70
2019-05-02T15:12:24.316Z,13.60
2019-05-02T15:14:57.494Z,13.60
2019-05-02T15:17:27.964Z,13.50
2019-05-02T15:19:55.838Z,13.60
2019-05-02T15:22:27.611Z,13.70
2019-05-02T15:24:56.582Z,13.70
2019-05-02T15:27:39.107Z,13.60
2019-05-02T15:30:05.134Z,13.50
2019-05-02T15:32:46.630Z,13.30
2019-05-02T15:35:22.976Z,13.30
2019-05-02T15:37:51.858Z,13.30
2019-05-02T15:42:56.729Z,13.10
2019-05-02T15:45:23.979Z,13.00
2019-05-02T15:47:53.435Z,12.90
2019-05-02T15:50:25.384Z,13.00
2019-05-02T15:53:03.128Z,13.00
2019-05-02T15:55:33.904Z,13.20
2019-05-02T15:58:02.275Z,13.20
2019-05-02T16:00:33.119Z,13.30
2019-05-02T16:03:04.360Z,13.40
2019-05-02T16:05:36.573Z,13.30
2019-05-02T16:08:08.459Z,13.40
2019-05-02T16:10:38.603Z,13.70
2019-05-02T16:13:08.734Z,13.80
2019-05-02T16:15:39.359Z,13.90
2019-05-02T16:18:08.637Z,14.20
2019-05-02T16:20:48.820Z,14.30
2019-05-02T16:23:19.020Z,14.00
2019-05-02T16:25:47.273Z,13.80
2019-05-02T16:28:16.615Z,13.80
2019-05-02T16:30:47.724Z,13.80
2019-05-02T16:33:20.462Z,13.80
2019-05-02T16:35:52.839Z,13.70
2019-05-02T16:38:19.254Z,13.50
2019-05-02T16:40:48.581Z,13.60
2019-05-02T16:43:17.921Z,13.80
2019-05-02T16:45:47.262Z,14.10
2019-05-02T16:48:16.601Z,14.10
2019-05-02T16:50:45.966Z,14.00
2019-05-02T16:53:17.156Z,14.00
2019-05-02T16:55:46.577Z,13.80
2019-05-02T16:58:15.921Z,13.70
2019-05-02T17:00:45.630Z,13.70
2019-05-02T17:03:17.286Z,13.80
2019-05-02T17:05:49.421Z,14.00
2019-05-02T17:08:20.274Z,13.90
2019-05-02T17:10:55.711Z,13.80
2019-05-02T17:13:27.338Z,13.90
2019-05-02T17:15:54.427Z,13.80
2019-05-02T17:18:24.540Z,13.70
2019-05-02T17:20:56.826Z,13.70
2019-05-02T17:23:25.547Z,13.80
2019-05-02T17:25:54.905Z,13.70
2019-05-02T17:28:24.268Z,13.70
2019-05-02T17:30:53.598Z,13.80
2019-05-02T17:33:22.967Z,13.60
2019-05-02T17:35:54.387Z,13.20
2019-05-02T17:38:27.325Z,13.10
2019-05-02T17:40:59.024Z,12.80
2019-05-02T17:43:25.499Z,12.60
2019-05-02T17:45:56.473Z,12.60
2019-05-02T17:48:26.020Z,12.70
2019-05-02T17:51:01.984Z,12.80
2019-05-02T17:53:33.843Z,12.70
2019-05-02T17:56:02.015Z,12.40
2019-05-02T17:58:31.871Z,12.50
2019-05-02T18:01:03.158Z,12.50
2019-05-02T18:03:35.151Z,12.40
2019-05-02T18:06:07.671Z,12.30
2019-05-02T18:08:34.836Z,12.40
2019-05-02T18:11:04.180Z,12.40
2019-05-02T18:13:35.297Z,12.40
2019-05-02T18:16:07.699Z,12.40
2019-05-02T18:18:37.458Z,12.20
2019-05-02T18:21:07.726Z,12.10
2019-05-02T18:23:37.375Z,12.00
2019-05-02T18:26:06.866Z,12.10
2019-05-02T18:28:46.250Z,12.20
2019-05-02T18:31:07.315Z,12.10
2019-05-02T18:33:41.036Z,12.20
2019-05-02T18:36:07.743Z,11.90
2019-05-02T18:38:37.092Z,11.80
2019-05-02T18:41:07.925Z,11.80
2019-05-02T18:43:43.611Z,11.60
2019-05-02T18:46:08.452Z,11.40
2019-05-02T18:48:42.152Z,11.20
2019-05-02T18:51:09.089Z,11.10
2019-05-02T18:53:38.511Z,11.10
2019-05-02T18:56:07.855Z,11.10
2019-05-02T18:58:41.474Z,11.10
2019-05-02T19:01:13.394Z,11.10
2019-05-02T19:03:39.709Z,11.10
2019-05-02T19:06:09.217Z,11.10
2019-05-02T19:08:46.753Z,11.00
2019-05-02T19:11:14.474Z,11.10
2019-05-02T19:13:44.461Z,11.10
2019-05-02T19:16:14.150Z,11.20
2019-05-02T19:18:43.557Z,11.00
2019-05-02T19:21:13.156Z,11.00
2019-05-02T19:23:42.682Z,11.00
2019-05-02T19:26:14.699Z,11.00
2019-05-02T19:28:44.733Z,11.00
2019-05-02T19:31:14.073Z,11.00
2019-05-02T19:33:44.199Z,10.90
2019-05-02T19:36:16.476Z,10.60
2019-05-02T19:38:44.808Z,10.60
2019-05-02T19:41:14.154Z,10.60
2019-05-02T19:43:49.340Z,10.60
2019-05-02T19:46:16.898Z,10.60
2019-05-02T19:48:46.050Z,10.50
2019-05-02T19:51:18.669Z,10.40
2019-05-02T19:53:46.456Z,10.50
2019-05-02T19:56:15.802Z,10.40
2019-05-02T19:58:46.809Z,10.50
2019-05-02T20:01:17.430Z,10.50
2019-05-02T20:03:47.837Z,10.50
2019-05-02T20:06:17.175Z,10.50
2019-05-02T20:08:46.522Z,10.40
2019-05-02T20:11:16.032Z,10.40
2019-05-02T20:13:45.371Z,10.40
2019-05-02T20:16:22.475Z,10.40
2019-05-02T20:18:52.502Z,10.40
2019-05-02T20:21:27.822Z,10.40
2019-05-02T20:23:57.488Z,10.40
2019-05-02T20:26:26.828Z,10.40
2019-05-02T20:28:56.172Z,10.30
2019-05-02T20:31:25.802Z,10.30
2019-05-02T20:33:55.149Z,10.30
2019-05-02T20:36:24.512Z,10.30
2019-05-02T20:38:53.879Z,10.40
2019-05-02T20:41:23.280Z,10.40
2019-05-02T20:43:52.670Z,10.40
2019-05-02T20:46:22.090Z,10.30
2019-05-02T20:48:52.543Z,10.40
2019-05-02T20:51:22.740Z,10.30
2019-05-02T20:53:52.729Z,10.30
2019-05-02T20:56:23.031Z,10.10
2019-05-02T20:58:52.778Z,10.10
2019-05-02T21:01:22.432Z,10.00
2019-05-02T21:03:52.252Z,10.00
2019-05-02T21:06:37.461Z,10.00
2019-05-02T21:08:58.961Z,10.00
2019-05-02T21:11:29.020Z,10.00
2019-05-02T21:13:58.484Z,10.10
2019-05-02T21:16:27.880Z,10.10
2019-05-02T21:18:57.277Z,10.10
2019-05-02T21:21:27.009Z,10.10
2019-05-02T21:23:56.404Z,10.10
2019-05-02T21:26:25.786Z,10.10
2019-05-02T21:28:55.415Z,10.10
2019-05-02T21:31:24.888Z,10.00
2019-05-02T21:33:54.283Z,10.00
2019-05-02T21:36:23.677Z,10.00
2019-05-02T21:38:53.087Z,10.10
2019-05-02T21:41:22.748Z,10.00
2019-05-02T21:43:52.133Z,10.00
2019-05-02T21:46:22.386Z,10.00
2019-05-02T21:48:52.665Z,10.00
2019-05-02T21:51:29.601Z,10.00
2019-05-02T21:54:06.097Z,9.90
2019-05-02T21:56:37.129Z,9.80
2019-05-02T21:59:08.440Z,9.70
2019-05-02T22:01:43.923Z,9.70
2019-05-02T22:04:13.376Z,9.70
2019-05-02T22:06:42.914Z,9.60
2019-05-02T22:09:12.944Z,9.50
2019-05-02T22:11:43.152Z,9.50
2019-05-02T22:14:13.457Z,9.50
2019-05-02T22:16:43.252Z,9.40
2019-05-02T22:19:12.636Z,9.40
2019-05-02T22:21:43.038Z,9.30
2019-05-02T22:24:14.539Z,9.30
2019-05-02T22:26:43.995Z,9.30
2019-05-02T22:29:13.381Z,9.40
2019-05-02T22:31:43.156Z,9.50
2019-05-02T22:34:12.992Z,9.50
2019-05-02T22:36:43.581Z,9.40
2019-05-02T22:39:22.177Z,9.40
2019-05-02T22:41:52.604Z,9.40
2019-05-02T22:44:22.150Z,9.40
2019-05-02T22:46:52.094Z,9.50
2019-05-02T22:49:22.548Z,9.30
2019-05-02T22:51:52.083Z,9.30
2019-05-02T22:54:29.582Z,9.30
2019-05-02T22:56:52.654Z,9.30
2019-05-02T22:59:23.887Z,9.20
2019-05-02T23:01:53.175Z,9.20
2019-05-02T23:04:23.580Z,9.20
2019-05-02T23:06:53.150Z,9.20
2019-05-02T23:09:22.858Z,9.20
2019-05-02T23:11:52.251Z,9.20
2019-05-02T23:14:22.301Z,9.20
2019-05-02T23:16:52.821Z,9.20
2019-05-02T23:19:22.971Z,9.20
2019-05-02T23:21:52.902Z,9.10
2019-05-02T23:24:38.433Z,9.10
2019-05-02T23:27:05.545Z,9.00
2019-05-02T23:29:34.928Z,8.90
2019-05-02T23:32:04.311Z,8.90
2019-05-02T23:34:33.717Z,8.90
2019-05-02T23:37:03.121Z,8.90
2019-05-02T23:39:32.506Z,8.90
2019-05-02T23:42:02.108Z,9.00
2019-05-02T23:44:31.503Z,8.90
2019-05-02T23:47:02.301Z,8.90
2019-05-02T23:49:32.442Z,8.90
2019-05-02T23:52:02.321Z,8.90
2019-05-02T23:54:32.416Z,8.70
2019-05-02T23:57:02.011Z,8.60
2019-05-02T23:59:31.801Z,8.70
